map of IMF home
IMF - Airport
Location
City:  Imphal, Manipur, India
Name:Bir Tikendrajit International Airport
Old (Alt.):Imphal International Airport
ICAO:VEIM
IATA:IMF

Details
Type:Airport (Aerodrome, Airfield)
Use:International (customs port of entry)
Latitude:24°45'36"N (24.759950)
Longitude:93°53'48"E (93.896697)
Datum:WGS 1984
Elevation:2540 ft (774 m)
Variation:0.38°W (WMM2015 magnetic declination)
0.03° annual change
Runways:1
Longest:9009 × 148 ft (2746 × 45 m), paved

Time
Time Zone:UTC+5:30
Local Time:

Weather
METAR:VEIM 180430Z 00000KT 3000 HZ FEW010 14/08 Q1018 NOSIG

Related Locations
Nearby:
Farthest:SCFX: 12056 mi / 19402 km
Isla San Félix, Desventuradas Islands, VS, CL

Find:

   beyond  
but within

Other Information
Maps:
NOTAMs:
Links:
Sources:

  
  • flag of India
  

Sectional Chart

Flight Planning
at skyvector.com

Satellite Image

Google Maps Satellite view

 

Copyright © 2004-2019 Karl L. Swartz. All rights reserved.
The Great Circle Mapper name and logo are trademarks of the Great Circle Mapper.
All other trademarks mentioned herein belong to their respective owners.
Please see credits for attibutions and further copyright information.

  Follow gcmap on Facebook Follow gcmap on Twitter Follow gcmap on Google+ GCmap on LinkedIn

hCard Microformat

Geo Microformat